sensor_id;sensor_type;location;lat;lon;timestamp;P1;durP1;ratioP1;P2;durP2;ratioP2
3704;SDS011;1868;48.918;9.438;2024-03-22T00:00:21;12.63;;;6.47;;
3704;SDS011;1868;48.918;9.438;2024-03-22T00:02:49;9.93;;;6.30;;
3704;SDS011;1868;48.918;9.438;2024-03-22T00:05:16;9.47;;;6.23;;
3704;SDS011;1868;48.918;9.438;2024-03-22T00:07:44;7.97;;;6.53;;
3704;SDS011;1868;48.918;9.438;2024-03-22T00:10:10;7.80;;;6.50;;
3704;SDS011;1868;48.918;9.438;2024-03-22T00:12:38;9.03;;;6.87;;
3704;SDS011;1868;48.918;9.438;2024-03-22T00:15:05;12.10;;;7.37;;
3704;SDS011;1868;48.918;9.438;2024-03-22T00:17:36;9.50;;;7.10;;
3704;SDS011;1868;48.918;9.438;2024-03-22T00:20:05;9.57;;;7.20;;
3704;SDS011;1868;48.918;9.438;2024-03-22T00:22:34;9.13;;;6.87;;
3704;SDS011;1868;48.918;9.438;2024-03-22T00:25:01;7.90;;;5.37;;
3704;SDS011;1868;48.918;9.438;2024-03-22T00:27:29;7.13;;;5.87;;
3704;SDS011;1868;48.918;9.438;2024-03-22T00:29:56;16.50;;;6.50;;
3704;SDS011;1868;48.918;9.438;2024-03-22T00:32:23;6.70;;;5.90;;
3704;SDS011;1868;48.918;9.438;2024-03-22T00:34:51;7.90;;;6.50;;
3704;SDS011;1868;48.918;9.438;2024-03-22T00:37:19;10.43;;;6.80;;
3704;SDS011;1868;48.918;9.438;2024-03-22T00:39:46;7.23;;;6.10;;
3704;SDS011;1868;48.918;9.438;2024-03-22T00:42:14;8.80;;;6.70;;
3704;SDS011;1868;48.918;9.438;2024-03-22T00:44:41;9.13;;;6.40;;
3704;SDS011;1868;48.918;9.438;2024-03-22T00:47:09;8.93;;;6.60;;
3704;SDS011;1868;48.918;9.438;2024-03-22T00:49:36;9.27;;;7.83;;
3704;SDS011;1868;48.918;9.438;2024-03-22T00:52:05;12.10;;;7.33;;
3704;SDS011;1868;48.918;9.438;2024-03-22T00:54:32;9.20;;;7.93;;
3704;SDS011;1868;48.918;9.438;2024-03-22T00:56:59;9.23;;;7.47;;
3704;SDS011;1868;48.918;9.438;2024-03-22T00:59:27;8.77;;;7.33;;
3704;SDS011;1868;48.918;9.438;2024-03-22T01:01:55;9.70;;;7.33;;
3704;SDS011;1868;48.918;9.438;2024-03-22T01:04:22;8.13;;;7.00;;
3704;SDS011;1868;48.918;9.438;2024-03-22T01:06:50;9.33;;;6.87;;
3704;SDS011;1868;48.918;9.438;2024-03-22T01:09:19;10.37;;;8.00;;
3704;SDS011;1868;48.918;9.438;2024-03-22T01:11:47;9.63;;;7.17;;
3704;SDS011;1868;48.918;9.438;2024-03-22T01:14:14;9.27;;;6.50;;
3704;SDS011;1868;48.918;9.438;2024-03-22T01:16:42;8.47;;;5.70;;
3704;SDS011;1868;48.918;9.438;2024-03-22T01:19:09;8.30;;;6.33;;
3704;SDS011;1868;48.918;9.438;2024-03-22T01:21:37;6.30;;;5.70;;
3704;SDS011;1868;48.918;9.438;2024-03-22T01:24:03;8.97;;;6.37;;
3704;SDS011;1868;48.918;9.438;2024-03-22T01:26:33;16.70;;;7.07;;
3704;SDS011;1868;48.918;9.438;2024-03-22T01:29:00;7.37;;;6.57;;
3704;SDS011;1868;48.918;9.438;2024-03-22T01:31:28;8.70;;;7.07;;
3704;SDS011;1868;48.918;9.438;2024-03-22T01:33:54;7.37;;;6.50;;
3704;SDS011;1868;48.918;9.438;2024-03-22T01:36:22;5.80;;;5.30;;
3704;SDS011;1868;48.918;9.438;2024-03-22T01:38:50;11.67;;;6.43;;
3704;SDS011;1868;48.918;9.438;2024-03-22T01:41:18;6.70;;;6.00;;
3704;SDS011;1868;48.918;9.438;2024-03-22T01:43:46;6.57;;;5.10;;
3704;SDS011;1868;48.918;9.438;2024-03-22T01:46:13;6.37;;;5.73;;
3704;SDS011;1868;48.918;9.438;2024-03-22T01:48:40;7.20;;;5.93;;
3704;SDS011;1868;48.918;9.438;2024-03-22T01:51:08;13.60;;;5.57;;
3704;SDS011;1868;48.918;9.438;2024-03-22T01:53:37;8.40;;;5.77;;
3704;SDS011;1868;48.918;9.438;2024-03-22T01:56:05;8.13;;;6.53;;
3704;SDS011;1868;48.918;9.438;2024-03-22T01:58:33;8.17;;;6.47;;
3704;SDS011;1868;48.918;9.438;2024-03-22T02:01:02;6.90;;;6.03;;
3704;SDS011;1868;48.918;9.438;2024-03-22T02:03:30;7.03;;;5.30;;
3704;SDS011;1868;48.918;9.438;2024-03-22T02:05:57;7.40;;;5.60;;
3704;SDS011;1868;48.918;9.438;2024-03-22T02:08:24;7.50;;;5.27;;
3704;SDS011;1868;48.918;9.438;2024-03-22T02:10:51;11.90;;;5.70;;
3704;SDS011;1868;48.918;9.438;2024-03-22T02:13:18;6.53;;;5.23;;
3704;SDS011;1868;48.918;9.438;2024-03-22T02:15:46;8.23;;;5.90;;
3704;SDS011;1868;48.918;9.438;2024-03-22T02:18:14;12.93;;;4.80;;
3704;SDS011;1868;48.918;9.438;2024-03-22T02:20:42;7.73;;;5.93;;
3704;SDS011;1868;48.918;9.438;2024-03-22T02:23:09;5.83;;;5.30;;
3704;SDS011;1868;48.918;9.438;2024-03-22T02:25:38;7.70;;;5.33;;
3704;SDS011;1868;48.918;9.438;2024-03-22T02:28:04;5.07;;;4.60;;
3704;SDS011;1868;48.918;9.438;2024-03-22T02:30:32;7.10;;;5.70;;
3704;SDS011;1868;48.918;9.438;2024-03-22T02:33:00;8.30;;;7.47;;
3704;SDS011;1868;48.918;9.438;2024-03-22T02:35:28;7.73;;;5.97;;
3704;SDS011;1868;48.918;9.438;2024-03-22T02:37:54;7.17;;;5.90;;
3704;SDS011;1868;48.918;9.438;2024-03-22T02:40:24;6.33;;;5.50;;
3704;SDS011;1868;48.918;9.438;2024-03-22T02:42:53;7.77;;;5.90;;
3704;SDS011;1868;48.918;9.438;2024-03-22T02:45:20;7.87;;;5.93;;
3704;SDS011;1868;48.918;9.438;2024-03-22T02:47:47;8.97;;;5.97;;
3704;SDS011;1868;48.918;9.438;2024-03-22T02:50:15;7.13;;;5.90;;
3704;SDS011;1868;48.918;9.438;2024-03-22T02:52:42;11.13;;;5.23;;
3704;SDS011;1868;48.918;9.438;2024-03-22T02:55:10;5.97;;;4.50;;
3704;SDS011;1868;48.918;9.438;2024-03-22T02:57:39;6.93;;;5.30;;
3704;SDS011;1868;48.918;9.438;2024-03-22T03:00:09;5.97;;;5.37;;
3704;SDS011;1868;48.918;9.438;2024-03-22T03:02:36;5.70;;;5.20;;
3704;SDS011;1868;48.918;9.438;2024-03-22T03:05:06;5.50;;;4.97;;
3704;SDS011;1868;48.918;9.438;2024-03-22T03:07:33;6.00;;;5.23;;
3704;SDS011;1868;48.918;9.438;2024-03-22T03:10:02;6.93;;;4.87;;
3704;SDS011;1868;48.918;9.438;2024-03-22T03:12:29;5.40;;;4.90;;
3704;SDS011;1868;48.918;9.438;2024-03-22T03:14:57;4.87;;;4.47;;
3704;SDS011;1868;48.918;9.438;2024-03-22T03:17:25;5.57;;;4.83;;
3704;SDS011;1868;48.918;9.438;2024-03-22T03:19:53;6.33;;;5.60;;
3704;SDS011;1868;48.918;9.438;2024-03-22T03:22:19;5.30;;;4.80;;
3704;SDS011;1868;48.918;9.438;2024-03-22T03:24:47;5.87;;;5.13;;
3704;SDS011;1868;48.918;9.438;2024-03-22T03:27:14;5.77;;;4.80;;
3704;SDS011;1868;48.918;9.438;2024-03-22T03:29:41;6.33;;;5.20;;
3704;SDS011;1868;48.918;9.438;2024-03-22T03:32:08;6.63;;;5.73;;
3704;SDS011;1868;48.918;9.438;2024-03-22T03:34:38;6.47;;;5.87;;
3704;SDS011;1868;48.918;9.438;2024-03-22T03:37:04;10.70;;;5.43;;
3704;SDS011;1868;48.918;9.438;2024-03-22T03:39:32;5.50;;;5.00;;
3704;SDS011;1868;48.918;9.438;2024-03-22T03:41:59;4.97;;;4.47;;
3704;SDS011;1868;48.918;9.438;2024-03-22T03:44:28;6.90;;;5.37;;
3704;SDS011;1868;48.918;9.438;2024-03-22T03:46:54;5.50;;;4.60;;
3704;SDS011;1868;48.918;9.438;2024-03-22T03:49:23;5.67;;;4.87;;
3704;SDS011;1868;48.918;9.438;2024-03-22T03:51:52;6.70;;;4.50;;
3704;SDS011;1868;48.918;9.438;2024-03-22T03:54:19;6.93;;;5.03;;
3704;SDS011;1868;48.918;9.438;2024-03-22T03:56:46;5.20;;;4.70;;
3704;SDS011;1868;48.918;9.438;2024-03-22T03:59:14;5.30;;;4.27;;
3704;SDS011;1868;48.918;9.438;2024-03-22T04:01:41;8.50;;;5.07;;
3704;SDS011;1868;48.918;9.438;2024-03-22T04:04:08;6.60;;;4.70;;
3704;SDS011;1868;48.918;9.438;2024-03-22T04:06:35;8.30;;;6.17;;
3704;SDS011;1868;48.918;9.438;2024-03-22T04:09:04;6.83;;;5.07;;
3704;SDS011;1868;48.918;9.438;2024-03-22T04:11:31;8.47;;;6.80;;
3704;SDS011;1868;48.918;9.438;2024-03-22T04:13:59;9.03;;;6.60;;
3704;SDS011;1868;48.918;9.438;2024-03-22T04:16:26;6.77;;;5.27;;
3704;SDS011;1868;48.918;9.438;2024-03-22T04:18:53;5.87;;;5.27;;
3704;SDS011;1868;48.918;9.438;2024-03-22T04:21:20;4.67;;;4.27;;
3704;SDS011;1868;48.918;9.438;2024-03-22T04:23:48;5.10;;;4.60;;
3704;SDS011;1868;48.918;9.438;2024-03-22T04:26:16;5.10;;;4.60;;
3704;SDS011;1868;48.918;9.438;2024-03-22T04:28:44;6.27;;;4.37;;
3704;SDS011;1868;48.918;9.438;2024-03-22T04:31:10;5.43;;;4.63;;
3704;SDS011;1868;48.918;9.438;2024-03-22T04:33:38;5.40;;;4.30;;
3704;SDS011;1868;48.918;9.438;2024-03-22T04:36:06;5.37;;;4.70;;
3704;SDS011;1868;48.918;9.438;2024-03-22T04:38:35;5.23;;;4.23;;
3704;SDS011;1868;48.918;9.438;2024-03-22T04:41:03;7.17;;;4.60;;
3704;SDS011;1868;48.918;9.438;2024-03-22T04:43:32;5.13;;;4.23;;
3704;SDS011;1868;48.918;9.438;2024-03-22T04:45:59;7.37;;;4.90;;
3704;SDS011;1868;48.918;9.438;2024-03-22T04:48:28;5.70;;;4.70;;
3704;SDS011;1868;48.918;9.438;2024-03-22T04:50:56;5.60;;;4.30;;
3704;SDS011;1868;48.918;9.438;2024-03-22T04:53:23;5.17;;;4.40;;
3704;SDS011;1868;48.918;9.438;2024-03-22T04:55:50;5.97;;;4.77;;
3704;SDS011;1868;48.918;9.438;2024-03-22T04:58:18;4.07;;;3.67;;
3704;SDS011;1868;48.918;9.438;2024-03-22T05:00:55;6.53;;;4.30;;
3704;SDS011;1868;48.918;9.438;2024-03-22T05:03:23;11.80;;;4.50;;
3704;SDS011;1868;48.918;9.438;2024-03-22T05:05:50;7.73;;;4.20;;
3704;SDS011;1868;48.918;9.438;2024-03-22T05:08:18;4.90;;;4.40;;
3704;SDS011;1868;48.918;9.438;2024-03-22T05:10:45;9.60;;;4.70;;
3704;SDS011;1868;48.918;9.438;2024-03-22T05:13:13;9.87;;;6.77;;
3704;SDS011;1868;48.918;9.438;2024-03-22T05:15:40;5.27;;;4.77;;
3704;SDS011;1868;48.918;9.438;2024-03-22T05:18:09;5.00;;;4.50;;
3704;SDS011;1868;48.918;9.438;2024-03-22T05:20:37;4.93;;;4.40;;
3704;SDS011;1868;48.918;9.438;2024-03-22T05:23:05;7.77;;;4.80;;
3704;SDS011;1868;48.918;9.438;2024-03-22T05:25:32;5.30;;;4.80;;
3704;SDS011;1868;48.918;9.438;2024-03-22T05:27:59;6.80;;;4.30;;
3704;SDS011;1868;48.918;9.438;2024-03-22T05:30:26;4.63;;;4.23;;
3704;SDS011;1868;48.918;9.438;2024-03-22T05:32:54;4.47;;;4.10;;
3704;SDS011;1868;48.918;9.438;2024-03-22T05:35:23;7.03;;;5.00;;
3704;SDS011;1868;48.918;9.438;2024-03-22T05:37:51;7.93;;;5.10;;
3704;SDS011;1868;48.918;9.438;2024-03-22T05:40:17;6.70;;;4.10;;
3704;SDS011;1868;48.918;9.438;2024-03-22T05:42:45;4.97;;;4.37;;
3704;SDS011;1868;48.918;9.438;2024-03-22T05:45:12;10.13;;;4.57;;
3704;SDS011;1868;48.918;9.438;2024-03-22T05:47:40;6.37;;;4.80;;
3704;SDS011;1868;48.918;9.438;2024-03-22T05:50:07;8.40;;;5.53;;
3704;SDS011;1868;48.918;9.438;2024-03-22T05:52:37;8.37;;;6.60;;
3704;SDS011;1868;48.918;9.438;2024-03-22T05:55:04;8.70;;;6.33;;
3704;SDS011;1868;48.918;9.438;2024-03-22T05:57:33;6.60;;;4.73;;
3704;SDS011;1868;48.918;9.438;2024-03-22T05:59:59;12.67;;;6.13;;
3704;SDS011;1868;48.918;9.438;2024-03-22T06:02:30;7.63;;;5.20;;
3704;SDS011;1868;48.918;9.438;2024-03-22T06:04:58;11.07;;;5.93;;
3704;SDS011;1868;48.918;9.438;2024-03-22T06:07:26;8.53;;;4.90;;
3704;SDS011;1868;48.918;9.438;2024-03-22T06:09:54;7.10;;;5.80;;
3704;SDS011;1868;48.918;9.438;2024-03-22T06:12:22;9.73;;;4.73;;
3704;SDS011;1868;48.918;9.438;2024-03-22T06:14:48;6.47;;;5.43;;
3704;SDS011;1868;48.918;9.438;2024-03-22T06:17:16;6.90;;;4.90;;
3704;SDS011;1868;48.918;9.438;2024-03-22T06:19:42;9.60;;;5.23;;
3704;SDS011;1868;48.918;9.438;2024-03-22T06:22:10;7.87;;;5.33;;
3704;SDS011;1868;48.918;9.438;2024-03-22T06:24:37;9.33;;;4.70;;
3704;SDS011;1868;48.918;9.438;2024-03-22T06:27:06;7.20;;;5.13;;
3704;SDS011;1868;48.918;9.438;2024-03-22T06:29:34;10.10;;;5.43;;
3704;SDS011;1868;48.918;9.438;2024-03-22T06:32:02;6.40;;;4.90;;
3704;SDS011;1868;48.918;9.438;2024-03-22T06:34:31;7.63;;;5.07;;
3704;SDS011;1868;48.918;9.438;2024-03-22T06:36:58;6.73;;;4.87;;
3704;SDS011;1868;48.918;9.438;2024-03-22T06:39:25;5.57;;;4.90;;
3704;SDS011;1868;48.918;9.438;2024-03-22T06:41:53;6.40;;;5.03;;
3704;SDS011;1868;48.918;9.438;2024-03-22T06:44:21;7.40;;;5.80;;
3704;SDS011;1868;48.918;9.438;2024-03-22T06:46:49;9.83;;;5.70;;
3704;SDS011;1868;48.918;9.438;2024-03-22T06:49:15;6.87;;;5.20;;
3704;SDS011;1868;48.918;9.438;2024-03-22T06:51:43;12.60;;;5.60;;
3704;SDS011;1868;48.918;9.438;2024-03-22T06:54:10;6.90;;;5.27;;
3704;SDS011;1868;48.918;9.438;2024-03-22T06:56:38;6.80;;;6.07;;
3704;SDS011;1868;48.918;9.438;2024-03-22T06:59:04;12.50;;;7.20;;
3704;SDS011;1868;48.918;9.438;2024-03-22T07:01:34;7.83;;;6.33;;
3704;SDS011;1868;48.918;9.438;2024-03-22T07:04:01;11.73;;;6.50;;
3704;SDS011;1868;48.918;9.438;2024-03-22T07:06:28;11.43;;;7.30;;
3704;SDS011;1868;48.918;9.438;2024-03-22T07:08:56;7.50;;;6.13;;
3704;SDS011;1868;48.918;9.438;2024-03-22T07:11:24;9.40;;;7.90;;
3704;SDS011;1868;48.918;9.438;2024-03-22T07:13:51;8.60;;;7.40;;
3704;SDS011;1868;48.918;9.438;2024-03-22T07:16:22;7.07;;;6.37;;
3704;SDS011;1868;48.918;9.438;2024-03-22T07:19:09;9.53;;;6.27;;
3704;SDS011;1868;48.918;9.438;2024-03-22T07:21:38;10.57;;;6.43;;
3704;SDS011;1868;48.918;9.438;2024-03-22T07:24:05;8.30;;;6.70;;
3704;SDS011;1868;48.918;9.438;2024-03-22T07:26:33;6.00;;;5.40;;
3704;SDS011;1868;48.918;9.438;2024-03-22T07:28:59;6.70;;;5.80;;
3704;SDS011;1868;48.918;9.438;2024-03-22T07:31:28;9.10;;;5.50;;
3704;SDS011;1868;48.918;9.438;2024-03-22T07:33:55;5.60;;;5.17;;
3704;SDS011;1868;48.918;9.438;2024-03-22T07:36:24;6.50;;;5.80;;
3704;SDS011;1868;48.918;9.438;2024-03-22T07:38:52;7.67;;;6.97;;
3704;SDS011;1868;48.918;9.438;2024-03-22T07:41:22;7.93;;;5.30;;
3704;SDS011;1868;48.918;9.438;2024-03-22T07:43:49;9.43;;;6.40;;
3704;SDS011;1868;48.918;9.438;2024-03-22T07:46:17;6.60;;;5.83;;
3704;SDS011;1868;48.918;9.438;2024-03-22T07:48:44;6.53;;;5.87;;
3704;SDS011;1868;48.918;9.438;2024-03-22T07:51:12;7.60;;;6.90;;
3704;SDS011;1868;48.918;9.438;2024-03-22T07:53:40;6.37;;;5.63;;
3704;SDS011;1868;48.918;9.438;2024-03-22T07:56:09;7.93;;;6.13;;
3704;SDS011;1868;48.918;9.438;2024-03-22T07:58:38;5.90;;;5.30;;
3704;SDS011;1868;48.918;9.438;2024-03-22T08:01:06;7.10;;;5.57;;
3704;SDS011;1868;48.918;9.438;2024-03-22T08:03:33;5.53;;;5.00;;
3704;SDS011;1868;48.918;9.438;2024-03-22T08:06:00;5.80;;;5.30;;
3704;SDS011;1868;48.918;9.438;2024-03-22T08:08:43;6.80;;;5.37;;
3704;SDS011;1868;48.918;9.438;2024-03-22T08:11:11;6.10;;;5.50;;
3704;SDS011;1868;48.918;9.438;2024-03-22T08:13:39;5.57;;;5.00;;
3704;SDS011;1868;48.918;9.438;2024-03-22T08:16:07;6.20;;;5.60;;
3704;SDS011;1868;48.918;9.438;2024-03-22T08:18:34;6.67;;;5.97;;
3704;SDS011;1868;48.918;9.438;2024-03-22T08:21:03;5.83;;;4.63;;
3704;SDS011;1868;48.918;9.438;2024-03-22T08:23:30;4.97;;;4.57;;
3704;SDS011;1868;48.918;9.438;2024-03-22T08:26:00;5.77;;;5.27;;
3704;SDS011;1868;48.918;9.438;2024-03-22T08:28:27;12.33;;;6.67;;
3704;SDS011;1868;48.918;9.438;2024-03-22T08:30:54;6.93;;;4.70;;
3704;SDS011;1868;48.918;9.438;2024-03-22T08:33:21;5.20;;;4.80;;
3704;SDS011;1868;48.918;9.438;2024-03-22T08:35:49;4.20;;;3.90;;
3704;SDS011;1868;48.918;9.438;2024-03-22T08:38:15;5.37;;;4.90;;
3704;SDS011;1868;48.918;9.438;2024-03-22T08:40:44;6.30;;;4.70;;
3704;SDS011;1868;48.918;9.438;2024-03-22T08:43:12;9.33;;;5.67;;
3704;SDS011;1868;48.918;9.438;2024-03-22T08:45:40;6.40;;;5.90;;
3704;SDS011;1868;48.918;9.438;2024-03-22T08:48:08;7.20;;;6.50;;
3704;SDS011;1868;48.918;9.438;2024-03-22T08:50:35;10.70;;;9.07;;
3704;SDS011;1868;48.918;9.438;2024-03-22T08:53:02;6.30;;;5.70;;
3704;SDS011;1868;48.918;9.438;2024-03-22T08:55:32;7.20;;;5.63;;
3704;SDS011;1868;48.918;9.438;2024-03-22T08:57:58;7.23;;;6.43;;
3704;SDS011;1868;48.918;9.438;2024-03-22T09:00:31;8.93;;;6.90;;
3704;SDS011;1868;48.918;9.438;2024-03-22T09:02:58;5.73;;;5.23;;
3704;SDS011;1868;48.918;9.438;2024-03-22T09:05:26;5.90;;;5.40;;
3704;SDS011;1868;48.918;9.438;2024-03-22T09:07:53;5.00;;;4.60;;
3704;SDS011;1868;48.918;9.438;2024-03-22T09:10:22;6.57;;;5.90;;
3704;SDS011;1868;48.918;9.438;2024-03-22T09:12:50;6.33;;;5.50;;
3704;SDS011;1868;48.918;9.438;2024-03-22T09:15:17;6.27;;;5.47;;
3704;SDS011;1868;48.918;9.438;2024-03-22T09:17:47;7.13;;;6.47;;
3704;SDS011;1868;48.918;9.438;2024-03-22T09:20:14;7.03;;;5.70;;
3704;SDS011;1868;48.918;9.438;2024-03-22T09:22:42;8.33;;;6.33;;
3704;SDS011;1868;48.918;9.438;2024-03-22T09:25:09;6.27;;;4.50;;
3704;SDS011;1868;48.918;9.438;2024-03-22T09:27:37;7.23;;;5.57;;
3704;SDS011;1868;48.918;9.438;2024-03-22T09:30:04;5.47;;;4.97;;
3704;SDS011;1868;48.918;9.438;2024-03-22T09:32:35;8.47;;;5.70;;
3704;SDS011;1868;48.918;9.438;2024-03-22T09:35:03;11.73;;;7.67;;
3704;SDS011;1868;48.918;9.438;2024-03-22T09:37:33;7.83;;;4.93;;
3704;SDS011;1868;48.918;9.438;2024-03-22T09:40:01;6.63;;;4.80;;
3704;SDS011;1868;48.918;9.438;2024-03-22T09:42:34;8.33;;;6.53;;
3704;SDS011;1868;48.918;9.438;2024-03-22T09:45:07;5.67;;;3.80;;
3704;SDS011;1868;48.918;9.438;2024-03-22T09:47:37;5.07;;;4.67;;
3704;SDS011;1868;48.918;9.438;2024-03-22T09:50:09;6.13;;;4.93;;
3704;SDS011;1868;48.918;9.438;2024-03-22T09:52:37;9.17;;;5.37;;
3704;SDS011;1868;48.918;9.438;2024-03-22T09:55:06;6.33;;;3.83;;
3704;SDS011;1868;48.918;9.438;2024-03-22T09:57:35;6.30;;;5.57;;
3704;SDS011;1868;48.918;9.438;2024-03-22T10:00:06;7.00;;;5.90;;
3704;SDS011;1868;48.918;9.438;2024-03-22T10:02:39;11.10;;;5.47;;
3704;SDS011;1868;48.918;9.438;2024-03-22T10:05:10;6.13;;;5.53;;
3704;SDS011;1868;48.918;9.438;2024-03-22T10:07:40;6.33;;;5.07;;
3704;SDS011;1868;48.918;9.438;2024-03-22T10:10:08;7.60;;;6.23;;
3704;SDS011;1868;48.918;9.438;2024-03-22T10:12:36;7.60;;;5.43;;
3704;SDS011;1868;48.918;9.438;2024-03-22T10:15:05;8.97;;;5.50;;
3704;SDS011;1868;48.918;9.438;2024-03-22T10:17:36;8.03;;;5.70;;
3704;SDS011;1868;48.918;9.438;2024-03-22T10:20:03;6.53;;;5.00;;
3704;SDS011;1868;48.918;9.438;2024-03-22T10:22:39;5.20;;;4.70;;
3704;SDS011;1868;48.918;9.438;2024-03-22T10:25:08;4.70;;;4.17;;
3704;SDS011;1868;48.918;9.438;2024-03-22T10:27:40;6.17;;;5.00;;
3704;SDS011;1868;48.918;9.438;2024-03-22T10:30:08;7.73;;;5.30;;
3704;SDS011;1868;48.918;9.438;2024-03-22T10:32:37;5.53;;;3.77;;
3704;SDS011;1868;48.918;9.438;2024-03-22T10:35:05;5.80;;;4.80;;
3704;SDS011;1868;48.918;9.438;2024-03-22T10:37:34;6.40;;;4.20;;
3704;SDS011;1868;48.918;9.438;2024-03-22T10:40:03;5.37;;;4.80;;
3704;SDS011;1868;48.918;9.438;2024-03-22T10:42:38;6.00;;;5.40;;
3704;SDS011;1868;48.918;9.438;2024-03-22T10:45:06;7.43;;;5.07;;
3704;SDS011;1868;48.918;9.438;2024-03-22T10:47:37;6.10;;;5.50;;
3704;SDS011;1868;48.918;9.438;2024-03-22T10:50:05;7.13;;;4.93;;
3704;SDS011;1868;48.918;9.438;2024-03-22T10:52:38;7.43;;;4.70;;
3704;SDS011;1868;48.918;9.438;2024-03-22T10:55:22;5.47;;;4.97;;
3704;SDS011;1868;48.918;9.438;2024-03-22T10:57:57;6.03;;;4.60;;
3704;SDS011;1868;48.918;9.438;2024-03-22T11:00:28;9.37;;;7.77;;
3704;SDS011;1868;48.918;9.438;2024-03-22T11:02:56;5.33;;;4.10;;
3704;SDS011;1868;48.918;9.438;2024-03-22T11:05:25;4.97;;;3.83;;
3704;SDS011;1868;48.918;9.438;2024-03-22T11:07:59;9.20;;;5.43;;
3704;SDS011;1868;48.918;9.438;2024-03-22T11:10:33;6.90;;;4.20;;
3704;SDS011;1868;48.918;9.438;2024-03-22T11:13:02;6.00;;;4.10;;
3704;SDS011;1868;48.918;9.438;2024-03-22T11:15:31;5.03;;;4.53;;
3704;SDS011;1868;48.918;9.438;2024-03-22T11:18:00;4.63;;;4.20;;
3704;SDS011;1868;48.918;9.438;2024-03-22T11:20:27;6.70;;;4.67;;
3704;SDS011;1868;48.918;9.438;2024-03-22T11:22:55;7.20;;;5.90;;
3704;SDS011;1868;48.918;9.438;2024-03-22T11:25:22;5.87;;;4.00;;
3704;SDS011;1868;48.918;9.438;2024-03-22T11:27:55;4.80;;;4.40;;
3704;SDS011;1868;48.918;9.438;2024-03-22T11:30:23;4.73;;;4.10;;
3704;SDS011;1868;48.918;9.438;2024-03-22T11:32:53;7.83;;;3.80;;
3704;SDS011;1868;48.918;9.438;2024-03-22T11:35:21;6.83;;;5.17;;
3704;SDS011;1868;48.918;9.438;2024-03-22T11:37:49;6.67;;;4.80;;
3704;SDS011;1868;48.918;9.438;2024-03-22T11:40:17;6.90;;;4.80;;
3704;SDS011;1868;48.918;9.438;2024-03-22T11:42:46;5.37;;;3.43;;
3704;SDS011;1868;48.918;9.438;2024-03-22T11:45:18;5.90;;;4.23;;
3704;SDS011;1868;48.918;9.438;2024-03-22T11:47:47;5.27;;;4.30;;
3704;SDS011;1868;48.918;9.438;2024-03-22T11:50:14;4.63;;;3.93;;
3704;SDS011;1868;48.918;9.438;2024-03-22T11:52:43;6.23;;;4.10;;
3704;SDS011;1868;48.918;9.438;2024-03-22T11:55:12;3.10;;;2.80;;
3704;SDS011;1868;48.918;9.438;2024-03-22T11:57:41;3.53;;;3.10;;
3704;SDS011;1868;48.918;9.438;2024-03-22T12:00:14;5.40;;;3.97;;
3704;SDS011;1868;48.918;9.438;2024-03-22T12:02:48;3.70;;;3.40;;
3704;SDS011;1868;48.918;9.438;2024-03-22T12:05:18;6.37;;;5.27;;
3704;SDS011;1868;48.918;9.438;2024-03-22T12:07:47;5.97;;;4.30;;
3704;SDS011;1868;48.918;9.438;2024-03-22T12:10:16;4.13;;;3.77;;
3704;SDS011;1868;48.918;9.438;2024-03-22T12:12:44;6.93;;;4.30;;
3704;SDS011;1868;48.918;9.438;2024-03-22T12:15:11;6.53;;;5.13;;
3704;SDS011;1868;48.918;9.438;2024-03-22T12:17:41;5.03;;;3.30;;
3704;SDS011;1868;48.918;9.438;2024-03-22T12:20:09;4.97;;;3.53;;
3704;SDS011;1868;48.918;9.438;2024-03-22T12:22:36;4.40;;;4.07;;
3704;SDS011;1868;48.918;9.438;2024-03-22T12:25:04;6.83;;;4.67;;
3704;SDS011;1868;48.918;9.438;2024-03-22T12:27:32;3.73;;;3.43;;
3704;SDS011;1868;48.918;9.438;2024-03-22T12:30:04;5.97;;;4.13;;
3704;SDS011;1868;48.918;9.438;2024-03-22T12:32:33;5.40;;;4.43;;
3704;SDS011;1868;48.918;9.438;2024-03-22T12:35:04;4.53;;;3.40;;
3704;SDS011;1868;48.918;9.438;2024-03-22T12:37:34;4.33;;;3.53;;
3704;SDS011;1868;48.918;9.438;2024-03-22T12:40:02;3.47;;;3.20;;
3704;SDS011;1868;48.918;9.438;2024-03-22T12:42:29;7.83;;;4.13;;
3704;SDS011;1868;48.918;9.438;2024-03-22T12:44:59;8.37;;;4.40;;
3704;SDS011;1868;48.918;9.438;2024-03-22T12:47:25;4.70;;;4.03;;
3704;SDS011;1868;48.918;9.438;2024-03-22T12:49:53;10.20;;;4.40;;
3704;SDS011;1868;48.918;9.438;2024-03-22T12:52:21;3.90;;;3.53;;
3704;SDS011;1868;48.918;9.438;2024-03-22T12:54:50;6.30;;;4.03;;
3704;SDS011;1868;48.918;9.438;2024-03-22T12:57:17;12.37;;;10.60;;
3704;SDS011;1868;48.918;9.438;2024-03-22T12:59:45;5.27;;;4.17;;
3704;SDS011;1868;48.918;9.438;2024-03-22T13:02:12;4.40;;;3.97;;
3704;SDS011;1868;48.918;9.438;2024-03-22T13:04:42;3.10;;;2.80;;
3704;SDS011;1868;48.918;9.438;2024-03-22T13:07:08;5.53;;;3.80;;
3704;SDS011;1868;48.918;9.438;2024-03-22T13:09:38;3.97;;;3.23;;
3704;SDS011;1868;48.918;9.438;2024-03-22T13:12:05;3.73;;;2.80;;
3704;SDS011;1868;48.918;9.438;2024-03-22T13:14:34;6.07;;;3.60;;
3704;SDS011;1868;48.918;9.438;2024-03-22T13:17:01;6.80;;;3.80;;
3704;SDS011;1868;48.918;9.438;2024-03-22T13:19:29;4.10;;;3.13;;
3704;SDS011;1868;48.918;9.438;2024-03-22T13:21:56;5.80;;;3.37;;
3704;SDS011;1868;48.918;9.438;2024-03-22T13:24:24;3.90;;;3.40;;
3704;SDS011;1868;48.918;9.438;2024-03-22T13:26:52;4.50;;;3.40;;
3704;SDS011;1868;48.918;9.438;2024-03-22T13:29:20;7.23;;;3.90;;
3704;SDS011;1868;48.918;9.438;2024-03-22T13:31:47;4.17;;;3.57;;
3704;SDS011;1868;48.918;9.438;2024-03-22T13:34:15;8.13;;;4.40;;
3704;SDS011;1868;48.918;9.438;2024-03-22T13:36:41;3.57;;;3.07;;
3704;SDS011;1868;48.918;9.438;2024-03-22T13:39:10;3.80;;;3.00;;
3704;SDS011;1868;48.918;9.438;2024-03-22T13:41:40;4.10;;;3.80;;
3704;SDS011;1868;48.918;9.438;2024-03-22T13:44:09;3.80;;;3.40;;
3704;SDS011;1868;48.918;9.438;2024-03-22T13:46:36;4.63;;;3.73;;
3704;SDS011;1868;48.918;9.438;2024-03-22T13:49:12;6.83;;;3.83;;
3704;SDS011;1868;48.918;9.438;2024-03-22T13:51:41;7.10;;;3.07;;
3704;SDS011;1868;48.918;9.438;2024-03-22T13:54:10;5.87;;;3.17;;
3704;SDS011;1868;48.918;9.438;2024-03-22T13:56:37;5.37;;;3.10;;
3704;SDS011;1868;48.918;9.438;2024-03-22T13:59:05;3.90;;;3.10;;
3704;SDS011;1868;48.918;9.438;2024-03-22T14:01:35;3.93;;;2.80;;
3704;SDS011;1868;48.918;9.438;2024-03-22T14:04:04;3.57;;;2.47;;
3704;SDS011;1868;48.918;9.438;2024-03-22T14:06:31;4.57;;;3.10;;
3704;SDS011;1868;48.918;9.438;2024-03-22T14:08:59;4.90;;;2.83;;
3704;SDS011;1868;48.918;9.438;2024-03-22T14:11:28;3.43;;;3.13;;
3704;SDS011;1868;48.918;9.438;2024-03-22T14:13:57;4.57;;;3.20;;
3704;SDS011;1868;48.918;9.438;2024-03-22T14:16:24;3.90;;;3.23;;
3704;SDS011;1868;48.918;9.438;2024-03-22T14:18:54;3.63;;;3.10;;
3704;SDS011;1868;48.918;9.438;2024-03-22T14:21:21;5.10;;;2.70;;
3704;SDS011;1868;48.918;9.438;2024-03-22T14:23:50;3.73;;;2.70;;
3704;SDS011;1868;48.918;9.438;2024-03-22T14:26:17;4.23;;;3.10;;
3704;SDS011;1868;48.918;9.438;2024-03-22T14:28:45;3.80;;;3.23;;
3704;SDS011;1868;48.918;9.438;2024-03-22T14:31:13;3.90;;;2.93;;
3704;SDS011;1868;48.918;9.438;2024-03-22T14:33:40;4.47;;;3.50;;
3704;SDS011;1868;48.918;9.438;2024-03-22T14:36:09;5.40;;;2.80;;
3704;SDS011;1868;48.918;9.438;2024-03-22T14:38:38;4.10;;;3.70;;
3704;SDS011;1868;48.918;9.438;2024-03-22T14:41:06;7.63;;;5.03;;
3704;SDS011;1868;48.918;9.438;2024-03-22T14:43:33;6.10;;;3.33;;
3704;SDS011;1868;48.918;9.438;2024-03-22T14:46:00;3.80;;;3.40;;
3704;SDS011;1868;48.918;9.438;2024-03-22T14:48:30;3.50;;;3.07;;
3704;SDS011;1868;48.918;9.438;2024-03-22T14:50:57;3.53;;;2.50;;
3704;SDS011;1868;48.918;9.438;2024-03-22T14:53:26;8.17;;;3.10;;
3704;SDS011;1868;48.918;9.438;2024-03-22T14:55:53;3.50;;;2.97;;
3704;SDS011;1868;48.918;9.438;2024-03-22T14:58:24;6.90;;;3.60;;
3704;SDS011;1868;48.918;9.438;2024-03-22T15:00:52;7.40;;;3.30;;
3704;SDS011;1868;48.918;9.438;2024-03-22T15:03:21;5.23;;;2.80;;
3704;SDS011;1868;48.918;9.438;2024-03-22T15:05:48;6.60;;;2.80;;
3704;SDS011;1868;48.918;9.438;2024-03-22T15:08:17;3.93;;;3.00;;
3704;SDS011;1868;48.918;9.438;2024-03-22T15:10:45;6.03;;;3.50;;
3704;SDS011;1868;48.918;9.438;2024-03-22T15:13:14;3.43;;;2.70;;
3704;SDS011;1868;48.918;9.438;2024-03-22T15:15:41;3.10;;;2.80;;
3704;SDS011;1868;48.918;9.438;2024-03-22T15:18:12;3.57;;;2.93;;
3704;SDS011;1868;48.918;9.438;2024-03-22T15:20:39;3.30;;;2.70;;